Time;durP1;ratioP1;P1;durP2;ratioP2;P2;SDS_P1;SDS_P2;PMS_P1;PMS_P2;Temp;Humidity;BMP_temperature;BMP_pressure;BME280_temperature;BME280_humidity;BME280_pressure;Samples;Min_cycle;Max_cycle;Signal;HPM_P1;HPM_P2
2022/11/24 00:01:03;;;;;;;7.47;6.68;;;;;;;;;;5053258;28;20569;-73
2022/11/24 00:03:29;;;;;;;10.90;7.75;;;;;;;;;;5020012;28;20044;-74
2022/11/24 00:05:56;;;;;;;9.75;8.05;;;;;;;;;;5020491;28;20033;-73
2022/11/24 00:08:30;;;;;;;8.60;7.80;;;;;;;;;;5037374;28;20488;-72
2022/11/24 00:11:01;;;;;;;12.73;9.43;;;;;;;;;;5069445;28;20597;-73
2022/11/24 00:13:39;;;;;;;10.70;7.88;;;;;;;;;;5020382;28;20064;-74
2022/11/24 00:16:06;;;;;;;12.98;10.55;;;;;;;;;;5037268;28;20115;-73
2022/11/24 00:18:59;;;;;;;11.48;10.15;;;;;;;;;;5052682;28;20530;-73
2022/11/24 00:21:25;;;;;;;11.93;10.38;;;;;;;;;;5067050;28;20057;-74
2022/11/24 00:23:51;;;;;;;16.10;13.50;;;;;;;;;;5022300;28;20093;-74
2022/11/24 00:26:23;;;;;;;13.63;11.00;;;;;;;;;;5022346;28;20070;-74
2022/11/24 00:28:59;;;;;;;12.18;10.95;;;;;;;;;;5039065;28;20055;-73
2022/11/24 00:31:29;;;;;;;15.82;13.10;;;;;;;;;;5038676;28;20492;-74
2022/11/24 00:33:57;;;;;;;19.08;13.73;;;;;;;;;;5038433;28;20031;-74
2022/11/24 00:36:24;;;;;;;12.45;8.45;;;;;;;;;;5038793;28;20028;-73
2022/11/24 00:38:52;;;;;;;15.82;9.50;;;;;;;;;;5038249;28;20143;-73
2022/11/24 00:41:18;;;;;;;17.20;13.50;;;;;;;;;;5089911;28;20028;-73
2022/11/24 00:43:45;;;;;;;17.38;11.95;;;;;;;;;;5037579;28;20044;-72
2022/11/24 00:46:21;;;;;;;11.80;9.52;;;;;;;;;;5038340;28;20035;-73
2022/11/24 00:48:47;;;;;;;15.98;11.52;;;;;;;;;;5038206;28;20032;-74
2022/11/24 00:51:20;;;;;;;13.35;9.90;;;;;;;;;;5036543;28;20044;-73
2022/11/24 00:53:50;;;;;;;9.82;8.57;;;;;;;;;;5052991;28;20039;-76
2022/11/24 00:56:19;;;;;;;13.70;9.45;;;;;;;;;;5038397;28;20496;-74
2022/11/24 00:58:49;;;;;;;12.13;9.90;;;;;;;;;;5039681;28;20055;-74
2022/11/24 01:01:19;;;;;;;19.15;11.15;;;;;;;;;;5021904;28;20437;-73
2022/11/24 01:03:48;;;;;;;11.63;9.68;;;;;;;;;;5053768;28;20036;-73
2022/11/24 01:06:18;;;;;;;18.20;12.30;;;;;;;;;;5038012;28;20472;-73
2022/11/24 01:08:45;;;;;;;17.05;12.73;;;;;;;;;;5038250;28;20043;-73
2022/11/24 01:11:24;;;;;;;18.08;12.88;;;;;;;;;;5039356;28;20040;-73
2022/11/24 01:13:59;;;;;;;21.13;13.07;;;;;;;;;;5039018;28;20104;-73
2022/11/24 01:16:29;;;;;;;12.48;10.20;;;;;;;;;;5021568;28;20028;-72
2022/11/24 01:18:55;;;;;;;10.65;9.05;;;;;;;;;;5021121;28;20039;-74
2022/11/24 01:21:21;;;;;;;10.20;9.13;;;;;;;;;;5021310;28;20035;-73
2022/11/24 01:23:47;;;;;;;14.60;10.45;;;;;;;;;;5037934;28;20048;-75
2022/11/24 01:26:14;;;;;;;9.57;8.20;;;;;;;;;;5054139;28;20020;-73
2022/11/24 01:28:47;;;;;;;13.07;8.10;;;;;;;;;;5023110;28;20043;-72
2022/11/24 01:31:16;;;;;;;16.23;12.85;;;;;;;;;;5054625;28;20035;-73
2022/11/24 01:33:55;;;;;;;11.00;9.73;;;;;;;;;;5039356;28;20040;-73
2022/11/24 01:36:21;;;;;;;12.27;8.75;;;;;;;;;;5038540;28;20123;-73
2022/11/24 01:38:49;;;;;;;10.35;8.65;;;;;;;;;;5049414;28;20059;-73
2022/11/24 01:41:22;;;;;;;16.25;11.77;;;;;;;;;;5034889;28;20037;-73
2022/11/24 01:43:48;;;;;;;13.18;10.63;;;;;;;;;;5019214;28;20123;-74
2022/11/24 01:46:31;;;;;;;13.15;10.45;;;;;;;;;;5019999;28;20029;-73
2022/11/24 01:49:02;;;;;;;9.80;8.43;;;;;;;;;;5019094;28;20048;-72
2022/11/24 01:51:57;;;;;;;12.73;8.75;;;;;;;;;;5035589;28;20450;-73
2022/11/24 01:54:27;;;;;;;10.00;8.95;;;;;;;;;;5041355;28;20137;-75
2022/11/24 01:56:54;;;;;;;12.70;10.02;;;;;;;;;;5021916;28;20033;-74
2022/11/24 01:59:22;;;;;;;11.30;8.27;;;;;;;;;;5039524;28;20044;-71
2022/11/24 02:02:00;;;;;;;12.93;9.98;;;;;;;;;;5041672;28;20039;-72
2022/11/24 02:04:31;;;;;;;;;;;;;;;;;;5055192;28;20047;-73
2022/11/24 02:07:07;;;;;;;16.05;10.82;;;;;;;;;;5054937;28;19912;-74
2022/11/24 02:09:41;;;;;;;16.73;11.95;;;;;;;;;;5054858;28;20060;-73
2022/11/24 02:12:08;;;;;;;12.50;8.35;;;;;;;;;;5039601;28;20029;-74
2022/11/24 02:14:42;;;;;;;16.23;12.43;;;;;;;;;;5023169;28;20063;-75
2022/11/24 02:17:11;;;;;;;11.48;10.27;;;;;;;;;;5038601;28;20035;-74
2022/11/24 02:19:40;;;;;;;9.25;6.85;;;;;;;;;;5037452;28;20040;-74
2022/11/24 02:22:07;;;;;;;7.72;6.95;;;;;;;;;;5054401;28;20052;-74
2022/11/24 02:24:50;;;;;;;10.25;9.05;;;;;;;;;;5036350;28;20102;-74
2022/11/24 02:27:16;;;;;;;16.15;13.10;;;;;;;;;;5052860;28;20082;-74
2022/11/24 02:29:42;;;;;;;16.95;11.60;;;;;;;;;;5037723;28;20144;-73
2022/11/24 02:32:08;;;;;;;11.60;10.15;;;;;;;;;;5010656;28;20135;-73
2022/11/24 02:34:43;;;;;;;12.32;10.35;;;;;;;;;;5030141;28;20772;-73
2022/11/24 02:37:10;;;;;;;13.15;9.73;;;;;;;;;;5037440;28;20097;-71
2022/11/24 02:39:36;;;;;;;14.15;10.95;;;;;;;;;;5040662;28;20043;-74
2022/11/24 02:42:03;;;;;;;17.52;11.73;;;;;;;;;;5040700;28;20501;-74
2022/11/24 02:44:31;;;;;;;16.10;10.95;;;;;;;;;;5057224;28;20043;-74
2022/11/24 02:47:01;;;;;;;17.27;11.82;;;;;;;;;;5040668;28;20066;-72
2022/11/24 02:49:27;;;;;;;10.52;8.45;;;;;;;;;;5040795;28;20079;-73
2022/11/24 02:51:53;;;;;;;10.60;8.25;;;;;;;;;;5091717;28;20028;-73
2022/11/24 02:54:20;;;;;;;14.68;10.93;;;;;;;;;;5052869;28;20516;-74
2022/11/24 02:56:46;;;;;;;15.25;10.63;;;;;;;;;;5055696;28;20097;-73
2022/11/24 02:59:13;;;;;;;14.93;10.52;;;;;;;;;;5078489;28;20071;-74
2022/11/24 03:01:39;;;;;;;18.85;13.68;;;;;;;;;;5029801;28;20128;-72
2022/11/24 03:04:05;;;;;;;9.68;8.07;;;;;;;;;;5046172;28;20178;-71
2022/11/24 03:06:32;;;;;;;15.10;9.65;;;;;;;;;;5061176;28;20040;-71
2022/11/24 03:08:58;;;;;;;14.27;10.60;;;;;;;;;;5042112;28;20039;-71
2022/11/24 03:11:24;;;;;;;17.80;11.32;;;;;;;;;;5088276;28;20047;-71
2022/11/24 03:16:41;;;;;;;;;;;;;;;;;;5074348;28;20664;-72
2022/11/24 03:19:07;;;;;;;21.55;11.35;;;;;;;;;;5073663;28;19963;-71
2022/11/24 03:21:42;;;;;;;13.38;10.48;;;;;;;;;;5055629;28;20043;-71
2022/11/24 03:24:08;;;;;;;15.10;10.85;;;;;;;;;;5039984;28;20044;-71
2022/11/24 03:26:55;;;;;;;15.07;10.73;;;;;;;;;;5051157;28;20047;-71
2022/11/24 03:29:21;;;;;;;15.25;10.50;;;;;;;;;;5039778;28;20040;-71
2022/11/24 03:34:40;;;;;;;20.27;12.73;;;;;;;;;;5049049;28;20040;-71
2022/11/24 03:37:07;;;;;;;14.32;10.02;;;;;;;;;;5023294;28;20032;-72
2022/11/24 03:39:36;;;;;;;19.13;13.90;;;;;;;;;;5052675;28;20090;-72
2022/11/24 03:42:02;;;;;;;15.27;11.90;;;;;;;;;;5036454;28;20059;-71
2022/11/24 03:44:28;;;;;;;20.27;15.15;;;;;;;;;;5036012;28;20510;-72
2022/11/24 03:46:54;;;;;;;20.35;12.68;;;;;;;;;;5053086;28;20036;-72
2022/11/24 03:49:20;;;;;;;14.70;9.30;;;;;;;;;;5016439;28;20033;-72
2022/11/24 03:51:46;;;;;;;18.75;13.00;;;;;;;;;;5035803;28;20041;-72
2022/11/24 03:54:16;;;;;;;17.27;12.45;;;;;;;;;;5055740;28;20503;-72
2022/11/24 03:56:42;;;;;;;14.45;10.23;;;;;;;;;;5034393;28;20028;-72
2022/11/24 03:59:08;;;;;;;20.27;14.10;;;;;;;;;;5022280;28;20127;-72
2022/11/24 04:01:34;;;;;;;10.05;8.73;;;;;;;;;;5022640;28;20028;-72
2022/11/24 04:04:07;;;;;;;13.77;9.10;;;;;;;;;;5021050;28;20029;-73
2022/11/24 04:06:33;;;;;;;18.45;12.18;;;;;;;;;;5052664;28;20032;-72
2022/11/24 04:08:59;;;;;;;11.13;9.35;;;;;;;;;;5029861;28;20024;-73
2022/11/24 04:14:18;;;;;;;15.57;10.27;;;;;;;;;;5073765;28;20114;-72
2022/11/24 04:16:45;;;;;;;15.35;10.30;;;;;;;;;;5002930;28;20036;-73
2022/11/24 04:19:14;;;;;;;15.80;10.20;;;;;;;;;;5018541;28;20032;-72
2022/11/24 04:21:41;;;;;;;23.10;17.13;;;;;;;;;;5052223;28;20105;-73
2022/11/24 04:24:08;;;;;;;21.95;15.13;;;;;;;;;;5022538;28;20065;-73
2022/11/24 04:26:35;;;;;;;15.82;9.73;;;;;;;;;;5022192;28;20392;-73
2022/11/24 04:29:00;;;;;;;10.25;9.02;;;;;;;;;;5016300;28;20064;-73
2022/11/24 04:31:27;;;;;;;17.92;11.40;;;;;;;;;;5018057;28;20056;-73
2022/11/24 04:33:53;;;;;;;20.92;15.15;;;;;;;;;;5034149;28;20052;-74
2022/11/24 04:36:20;;;;;;;18.80;12.07;;;;;;;;;;5033654;28;20590;-73
2022/11/24 04:38:46;;;;;;;15.48;10.75;;;;;;;;;;5027516;28;20076;-73
2022/11/24 04:41:12;;;;;;;15.60;11.20;;;;;;;;;;4995479;28;20128;-73
2022/11/24 04:43:47;;;;;;;12.32;9.40;;;;;;;;;;4995363;28;20037;-73
2022/11/24 04:46:13;;;;;;;22.73;16.52;;;;;;;;;;4980675;28;20041;-72
2022/11/24 04:48:43;;;;;;;21.90;16.40;;;;;;;;;;5028561;28;20042;-73
2022/11/24 04:51:16;;;;;;;22.77;14.80;;;;;;;;;;5013010;28;20038;-73
2022/11/24 04:53:42;;;;;;;19.33;12.95;;;;;;;;;;4995520;28;20654;-73
2022/11/24 04:56:12;;;;;;;15.13;9.10;;;;;;;;;;5012752;28;20171;-72
2022/11/24 04:58:42;;;;;;;14.27;8.85;;;;;;;;;;5012203;28;20080;-72
2022/11/24 05:01:16;;;;;;;12.15;9.75;;;;;;;;;;5013778;28;20086;-73
2022/11/24 05:03:45;;;;;;;16.38;11.38;;;;;;;;;;5011566;28;20460;-74
2022/11/24 05:06:11;;;;;;;14.65;10.77;;;;;;;;;;4995219;28;20054;-74
2022/11/24 05:08:40;;;;;;;11.77;8.93;;;;;;;;;;5044007;28;20072;-73
2022/11/24 05:11:09;;;;;;;15.65;11.10;;;;;;;;;;5012076;28;20040;-72
2022/11/24 05:13:39;;;;;;;13.10;10.53;;;;;;;;;;5011729;28;20513;-72
2022/11/24 05:16:10;;;;;;;17.58;11.82;;;;;;;;;;4994674;28;20443;-72
2022/11/24 05:18:36;;;;;;;11.80;9.02;;;;;;;;;;5011198;28;20060;-72
2022/11/24 05:21:03;;;;;;;20.02;13.15;;;;;;;;;;5035454;28;20517;-73
2022/11/24 05:23:29;;;;;;;17.67;13.25;;;;;;;;;;5011184;28;20033;-73
2022/11/24 05:26:01;;;;;;;12.77;10.73;;;;;;;;;;5010963;28;20025;-72
2022/11/24 05:28:28;;;;;;;14.45;11.90;;;;;;;;;;4995109;28;20187;-72
2022/11/24 05:31:05;;;;;;;17.02;13.07;;;;;;;;;;5009960;28;20524;-72
2022/11/24 05:33:32;;;;;;;16.13;10.75;;;;;;;;;;5012070;28;20509;-73
2022/11/24 05:36:01;;;;;;;18.80;13.95;;;;;;;;;;4994262;28;20044;-73
2022/11/24 05:38:29;;;;;;;11.30;8.68;;;;;;;;;;5030900;28;20375;-72
2022/11/24 05:40:59;;;;;;;20.38;13.45;;;;;;;;;;5014615;28;20040;-73
2022/11/24 05:43:27;;;;;;;11.98;10.05;;;;;;;;;;5031355;28;20033;-72
2022/11/24 05:46:05;;;;;;;12.02;9.40;;;;;;;;;;5014889;28;20037;-73
2022/11/24 05:48:31;;;;;;;19.25;14.45;;;;;;;;;;5014453;28;20412;-72
2022/11/24 05:50:57;;;;;;;13.75;9.55;;;;;;;;;;5014215;28;20520;-72
2022/11/24 05:53:25;;;;;;;14.75;11.52;;;;;;;;;;5015150;28;20441;-73
2022/11/24 05:55:56;;;;;;;;;;;;;;;;;;5015883;28;20033;-71
2022/11/24 05:58:22;;;;;;;18.85;12.95;;;;;;;;;;5030898;28;19930;-72
2022/11/24 06:00:48;;;;;;;17.27;12.57;;;;;;;;;;5013837;28;20524;-72
2022/11/24 06:03:14;;;;;;;20.13;13.75;;;;;;;;;;5047329;28;20063;-73
2022/11/24 06:05:43;;;;;;;19.48;12.40;;;;;;;;;;5047311;28;20477;-73
2022/11/24 06:08:34;;;;;;;15.98;12.48;;;;;;;;;;4997788;28;20068;-72
2022/11/24 06:11:16;;;;;;;20.65;13.05;;;;;;;;;;5030558;28;20033;-72
2022/11/24 06:13:43;;;;;;;24.35;14.48;;;;;;;;;;5033101;28;20037;-73
2022/11/24 06:16:13;;;;;;;18.30;13.13;;;;;;;;;;5030922;28;20041;-73
2022/11/24 06:18:51;;;;;;;18.45;12.85;;;;;;;;;;5031007;28;20051;-73
2022/11/24 06:21:17;;;;;;;19.77;13.80;;;;;;;;;;5027147;28;20044;-73
2022/11/24 06:23:43;;;;;;;18.58;11.95;;;;;;;;;;5027312;28;20030;-74
2022/11/24 06:26:10;;;;;;;11.48;8.95;;;;;;;;;;5026647;28;20510;-72
2022/11/24 06:28:36;;;;;;;26.15;15.52;;;;;;;;;;4994423;28;20033;-72
2022/11/24 06:31:03;;;;;;;23.10;14.25;;;;;;;;;;5026839;28;20038;-73
2022/11/24 06:33:32;;;;;;;23.60;14.02;;;;;;;;;;5027092;28;20033;-73
2022/11/24 06:36:03;;;;;;;21.77;13.75;;;;;;;;;;5026928;28;20030;-72
2022/11/24 06:38:33;;;;;;;25.27;16.42;;;;;;;;;;5037907;28;20053;-73
2022/11/24 06:41:05;;;;;;;17.95;11.77;;;;;;;;;;5013854;28;20674;-73
2022/11/24 06:43:33;;;;;;;23.50;15.02;;;;;;;;;;5018499;28;20057;-73
2022/11/24 06:46:08;;;;;;;20.67;12.13;;;;;;;;;;5052068;28;20029;-73
2022/11/24 06:48:42;;;;;;;18.63;12.43;;;;;;;;;;5024674;28;20110;-76
2022/11/24 06:51:15;;;;;;;23.23;15.52;;;;;;;;;;5045693;28;20120;-77
2022/11/24 06:53:46;;;;;;;22.10;14.02;;;;;;;;;;5042293;28;20516;-76
2022/11/24 06:56:13;;;;;;;24.00;15.68;;;;;;;;;;5040229;28;20049;-76
2022/11/24 06:58:46;;;;;;;20.33;13.13;;;;;;;;;;5033023;28;20748;-76
2022/11/24 07:01:13;;;;;;;16.42;10.95;;;;;;;;;;5043038;28;20118;-76
2022/11/24 07:03:47;;;;;;;27.55;14.05;;;;;;;;;;5029460;28;20047;-75
2022/11/24 07:06:16;;;;;;;33.65;19.55;;;;;;;;;;5040468;28;20515;-75
2022/11/24 07:08:42;;;;;;;25.52;15.30;;;;;;;;;;5040100;28;20055;-76
2022/11/24 07:11:17;;;;;;;26.83;13.82;;;;;;;;;;5041217;28;20040;-76
2022/11/24 07:13:50;;;;;;;28.67;15.27;;;;;;;;;;5045605;28;20040;-77
2022/11/24 07:16:17;;;;;;;26.63;16.45;;;;;;;;;;5025318;28;20087;-77
2022/11/24 07:18:46;;;;;;;25.88;17.85;;;;;;;;;;5009912;28;20094;-77
2022/11/24 07:21:12;;;;;;;34.38;20.02;;;;;;;;;;5020221;28;20496;-75
2022/11/24 07:23:39;;;;;;;24.90;15.55;;;;;;;;;;5058575;28;20094;-78
2022/11/24 07:26:05;;;;;;;29.27;17.83;;;;;;;;;;5038386;28;20029;-77
2022/11/24 07:28:32;;;;;;;26.38;13.52;;;;;;;;;;5020770;28;20045;-77
2022/11/24 07:31:23;;;;;;;23.58;13.45;;;;;;;;;;5021437;28;20031;-76
2022/11/24 07:33:53;;;;;;;30.90;19.52;;;;;;;;;;5024118;28;20037;-76
2022/11/24 07:36:21;;;;;;;;;;;;;;;;;;5055748;28;20044;-78
2022/11/24 07:38:47;;;;;;;18.65;11.52;;;;;;;;;;5043591;28;19920;-75
2022/11/24 07:41:13;;;;;;;21.77;14.07;;;;;;;;;;5025649;28;20455;-74
2022/11/24 07:43:39;;;;;;;21.13;13.68;;;;;;;;;;5059969;28;20066;-74
2022/11/24 07:46:09;;;;;;;26.25;17.00;;;;;;;;;;5028373;28;20032;-76
2022/11/24 07:48:35;;;;;;;25.60;16.92;;;;;;;;;;5032637;28;20412;-76
2022/11/24 07:51:01;;;;;;;21.13;12.65;;;;;;;;;;5061891;28;20135;-78
2022/11/24 07:53:37;;;;;;;10.98;7.97;;;;;;;;;;5049939;28;20036;-77
2022/11/24 07:56:06;;;;;;;20.55;14.38;;;;;;;;;;5047777;28;20034;-75
2022/11/24 07:58:33;;;;;;;22.67;13.60;;;;;;;;;;5046861;28;20048;-76
2022/11/24 08:01:09;;;;;;;25.52;17.45;;;;;;;;;;5043436;28;20067;-76
2022/11/24 08:03:35;;;;;;;29.95;19.10;;;;;;;;;;5056536;28;20032;-76
2022/11/24 08:06:01;;;;;;;22.38;15.02;;;;;;;;;;5044271;28;20032;-76
2022/11/24 08:08:27;;;;;;;23.92;13.43;;;;;;;;;;5032513;28;20043;-77
2022/11/24 08:10:54;;;;;;;23.90;13.45;;;;;;;;;;5024423;28;20028;-76
2022/11/24 08:13:20;;;;;;;20.30;13.18;;;;;;;;;;5021184;28;20039;-77
2022/11/24 08:15:46;;;;;;;16.40;13.07;;;;;;;;;;5053694;28;20379;-77
2022/11/24 08:18:23;;;;;;;20.33;11.70;;;;;;;;;;5020561;28;20037;-76
2022/11/24 08:20:49;;;;;;;25.70;17.58;;;;;;;;;;5036414;28;20031;-77
2022/11/24 08:23:24;;;;;;;19.45;12.05;;;;;;;;;;5053114;28;20041;-77
2022/11/24 08:25:53;;;;;;;13.02;9.57;;;;;;;;;;5052362;28;20040;-76
2022/11/24 08:28:19;;;;;;;18.83;12.45;;;;;;;;;;5019470;28;20037;-75
2022/11/24 08:31:05;;;;;;;25.88;16.58;;;;;;;;;;5056965;28;20036;-74
2022/11/24 08:33:56;;;;;;;25.42;16.67;;;;;;;;;;5062191;28;20054;-73
2022/11/24 08:36:22;;;;;;;23.17;15.02;;;;;;;;;;5037600;28;20051;-74
2022/11/24 08:38:52;;;;;;;26.15;17.90;;;;;;;;;;5036186;28;20048;-77
2022/11/24 08:41:21;;;;;;;26.10;17.38;;;;;;;;;;5036625;28;20039;-75
2022/11/24 08:43:47;;;;;;;19.95;12.82;;;;;;;;;;5037998;28;20074;-75
2022/11/24 08:46:18;;;;;;;21.85;13.95;;;;;;;;;;5037664;28;20028;-76
2022/11/24 08:48:51;;;;;;;28.02;15.95;;;;;;;;;;5053288;28;20443;-76
2022/11/24 08:51:18;;;;;;;17.65;13.52;;;;;;;;;;5018997;28;20032;-75
2022/11/24 08:53:44;;;;;;;25.40;18.88;;;;;;;;;;5034174;28;20036;-76
2022/11/24 08:56:10;;;;;;;24.55;14.70;;;;;;;;;;5033459;28;20411;-76
2022/11/24 08:58:39;;;;;;;18.90;13.95;;;;;;;;;;5068904;28;20044;-76
2022/11/24 09:01:06;;;;;;;22.92;12.05;;;;;;;;;;5069221;28;20024;-78
2022/11/24 09:03:34;;;;;;;17.52;9.68;;;;;;;;;;5059930;28;20090;-78
2022/11/24 09:06:01;;;;;;;13.35;9.77;;;;;;;;;;5042135;28;20032;-79
2022/11/24 09:08:28;;;;;;;8.40;7.18;;;;;;;;;;5035627;28;20366;-80
2022/11/24 09:10:58;;;;;;;19.23;11.90;;;;;;;;;;5034885;28;20450;-78
2022/11/24 09:13:24;;;;;;;14.70;10.23;;;;;;;;;;5054909;28;20055;-77
2022/11/24 09:15:55;;;;;;;25.90;15.90;;;;;;;;;;5023383;28;20529;-78
2022/11/24 09:18:48;;;;;;;15.15;10.15;;;;;;;;;;5038568;28;20120;-77
2022/11/24 09:21:15;;;;;;;15.50;11.43;;;;;;;;;;5038329;28;20032;-78
2022/11/24 09:23:49;;;;;;;17.00;9.32;;;;;;;;;;5022345;28;20036;-78
2022/11/24 09:26:16;;;;;;;21.20;12.45;;;;;;;;;;5034026;28;20032;-78
2022/11/24 09:28:43;;;;;;;16.48;9.98;;;;;;;;;;5018154;28;20381;-76
2022/11/24 09:31:09;;;;;;;23.13;12.80;;;;;;;;;;5017575;28;20508;-76
2022/11/24 09:33:36;;;;;;;20.58;13.10;;;;;;;;;;5040891;28;20420;-77
2022/11/24 09:36:02;;;;;;;12.82;9.43;;;;;;;;;;5021178;28;20039;-76
2022/11/24 09:38:28;;;;;;;15.43;11.40;;;;;;;;;;5037748;28;20056;-78
2022/11/24 09:41:19;;;;;;;17.05;12.75;;;;;;;;;;5042235;28;20043;-79
2022/11/24 09:43:57;;;;;;;17.77;13.57;;;;;;;;;;5052939;28;20075;-77
2022/11/24 09:46:29;;;;;;;20.17;14.63;;;;;;;;;;5035505;28;20057;-77
2022/11/24 09:48:56;;;;;;;27.88;18.33;;;;;;;;;;5037516;28;20040;-78
2022/11/24 09:51:25;;;;;;;24.83;17.25;;;;;;;;;;5071234;28;20042;-77
2022/11/24 09:54:12;;;;;;;25.85;19.23;;;;;;;;;;5053124;28;20415;-78
2022/11/24 09:56:39;;;;;;;19.63;13.85;;;;;;;;;;5037441;28;20530;-77
2022/11/24 09:59:06;;;;;;;19.30;13.57;;;;;;;;;;5041384;28;20040;-78
2022/11/24 10:01:34;;;;;;;33.67;20.33;;;;;;;;;;5029112;28;20040;-77
2022/11/24 10:04:00;;;;;;;19.67;12.32;;;;;;;;;;5065346;28;20043;-78
2022/11/24 10:06:29;;;;;;;18.27;12.95;;;;;;;;;;5064628;28;20028;-78
2022/11/24 10:08:58;;;;;;;29.70;18.95;;;;;;;;;;5045905;28;20104;-78
2022/11/24 10:11:45;;;;;;;19.50;13.45;;;;;;;;;;5050259;28;20032;-78
2022/11/24 10:14:23;;;;;;;19.45;12.05;;;;;;;;;;5046236;28;20042;-81
2022/11/24 10:17:39;;;;;;;;;;;;;;;;;;5084151;28;20532;-80
2022/11/24 10:20:11;;;;;;;26.88;15.75;;;;;;;;;;5061848;28;19912;-81
2022/11/24 10:23:01;;;;;;;25.35;12.70;;;;;;;;;;5028153;28;20518;-83
2022/11/24 10:25:31;;;;;;;12.30;8.90;;;;;;;;;;5044010;28;20599;-80
2022/11/24 10:28:07;;;;;;;15.88;11.23;;;;;;;;;;5044521;28;20031;-83
2022/11/24 10:30:33;;;;;;;20.98;13.20;;;;;;;;;;5044036;28;20081;-80
2022/11/24 10:33:00;;;;;;;19.33;12.57;;;;;;;;;;5030461;28;20103;-80
2022/11/24 10:35:56;;;;;;;13.35;10.32;;;;;;;;;;5057938;28;20180;-79
2022/11/24 10:38:30;;;;;;;21.30;13.10;;;;;;;;;;5041575;28;20554;-81
2022/11/24 10:41:11;;;;;;;24.08;12.95;;;;;;;;;;5025166;28;20028;-79
2022/11/24 10:43:39;;;;;;;27.08;16.75;;;;;;;;;;5060987;28;20044;-82
2022/11/24 10:46:09;;;;;;;24.50;13.70;;;;;;;;;;5042405;28;20655;-81
2022/11/24 10:48:45;;;;;;;30.08;16.67;;;;;;;;;;5026699;28;20040;-82
2022/11/24 10:51:18;;;;;;;31.60;18.80;;;;;;;;;;5058107;28;20544;-81
2022/11/24 10:53:49;;;;;;;25.13;16.00;;;;;;;;;;5055287;28;20029;-79
2022/11/24 10:56:15;;;;;;;29.23;17.08;;;;;;;;;;5073480;28;20039;-78
2022/11/24 10:58:42;;;;;;;14.77;9.95;;;;;;;;;;5022062;28;20040;-79
2022/11/24 11:01:14;;;;;;;27.67;16.23;;;;;;;;;;5071798;28;20381;-77
2022/11/24 11:03:47;;;;;;;23.45;13.57;;;;;;;;;;5068224;28;20039;-79
2022/11/24 11:06:29;;;;;;;19.52;12.07;;;;;;;;;;5039825;28;20044;-80
2022/11/24 11:09:10;;;;;;;29.70;15.70;;;;;;;;;;5020880;28;20025;-78
2022/11/24 11:11:40;;;;;;;23.95;14.82;;;;;;;;;;5034743;28;20068;-78
2022/11/24 11:14:07;;;;;;;33.47;20.30;;;;;;;;;;5034002;28;20502;-77
2022/11/24 11:16:38;;;;;;;19.48;12.75;;;;;;;;;;5056075;28;20039;-79
2022/11/24 11:19:05;;;;;;;10.98;8.18;;;;;;;;;;5022498;28;20605;-80
2022/11/24 11:21:35;;;;;;;19.25;11.82;;;;;;;;;;5039408;28;20038;-79
2022/11/24 11:24:02;;;;;;;29.77;20.33;;;;;;;;;;5056193;28;20032;-79
2022/11/24 11:26:30;;;;;;;26.60;16.08;;;;;;;;;;5040802;28;20527;-80
2022/11/24 11:29:11;;;;;;;32.60;19.13;;;;;;;;;;5038578;28;20077;-80
2022/11/24 11:31:38;;;;;;;29.15;12.68;;;;;;;;;;5023466;28;20039;-78
2022/11/24 11:34:04;;;;;;;28.60;16.92;;;;;;;;;;5022529;28;20032;-78
2022/11/24 11:36:30;;;;;;;35.53;21.40;;;;;;;;;;5072362;28;20039;-78
2022/11/24 11:39:01;;;;;;;36.10;21.65;;;;;;;;;;5039718;28;20071;-77
2022/11/24 11:41:39;;;;;;;30.05;14.63;;;;;;;;;;5021650;28;20047;-77
2022/11/24 11:44:11;;;;;;;36.88;21.30;;;;;;;;;;5039211;28;20120;-78
2022/11/24 11:46:41;;;;;;;29.35;17.10;;;;;;;;;;5040937;28;20696;-77
2022/11/24 11:49:12;;;;;;;;;;;;;;;;;;5019703;28;20020;-77
2022/11/24 11:52:04;;;;;;;18.63;12.30;;;;;;;;;;5080708;28;19919;-76
2022/11/24 11:54:56;;;;;;;23.77;16.30;;;;;;;;;;5038986;28;20062;-77
2022/11/24 11:57:41;;;;;;;15.45;11.52;;;;;;;;;;5007155;28;20040;-77
2022/11/24 12:00:25;;;;;;;23.52;13.20;;;;;;;;;;5033851;28;20044;-77
2022/11/24 12:03:14;;;;;;;17.52;12.20;;;;;;;;;;5047590;28;20515;-77
2022/11/24 12:05:51;;;;;;;24.08;13.43;;;;;;;;;;5055766;28;20047;-77
2022/11/24 12:08:36;;;;;;;30.02;18.58;;;;;;;;;;5030626;28;20093;-76
2022/11/24 12:11:35;;;;;;;26.45;15.68;;;;;;;;;;5034610;28;20040;-76
2022/11/24 12:14:23;;;;;;;17.42;10.13;;;;;;;;;;4958480;28;20181;-76
2022/11/24 12:16:55;;;;;;;22.15;12.10;;;;;;;;;;4989418;28;20047;-77
2022/11/24 12:19:24;;;;;;;26.33;15.48;;;;;;;;;;5039292;28;20083;-77
2022/11/24 12:22:10;;;;;;;16.75;11.18;;;;;;;;;;5024082;28;20035;-79
2022/11/24 12:24:47;;;;;;;19.80;11.45;;;;;;;;;;4984641;28;20041;-77
2022/11/24 12:27:13;;;;;;;37.15;18.75;;;;;;;;;;5031671;28;20047;-79
2022/11/24 12:29:45;;;;;;;25.38;14.35;;;;;;;;;;5055470;28;20039;-80
2022/11/24 12:32:11;;;;;;;31.55;18.90;;;;;;;;;;5038804;28;20035;-80
2022/11/24 12:34:56;;;;;;;14.35;9.50;;;;;;;;;;5038618;28;20687;-79
2022/11/24 12:37:22;;;;;;;26.65;18.13;;;;;;;;;;5033430;28;20187;-79
2022/11/24 12:40:15;;;;;;;17.73;11.05;;;;;;;;;;5049902;28;20523;-76
2022/11/24 12:43:05;;;;;;;18.42;11.02;;;;;;;;;;5041831;28;20466;-77
2022/11/24 12:48:29;;;;;;;15.77;10.68;;;;;;;;;;5043475;28;20044;-78
2022/11/24 12:50:56;;;;;;;29.15;17.38;;;;;;;;;;5034388;28;20043;-77
2022/11/24 12:53:29;;;;;;;20.58;14.55;;;;;;;;;;5034222;28;20033;-76
2022/11/24 12:56:19;;;;;;;22.65;13.00;;;;;;;;;;5017074;28;20037;-76
2022/11/24 12:58:57;;;;;;;29.77;15.55;;;;;;;;;;5023773;28;20061;-77
2022/11/24 13:01:34;;;;;;;22.77;13.93;;;;;;;;;;5021361;28;20040;-76
2022/11/24 13:04:06;;;;;;;31.02;19.98;;;;;;;;;;5039578;28;20032;-75
2022/11/24 13:06:32;;;;;;;20.08;11.93;;;;;;;;;;5050812;28;20047;-76
2022/11/24 13:09:05;;;;;;;23.95;14.48;;;;;;;;;;5053496;28;20035;-76
2022/11/24 13:11:35;;;;;;;28.23;16.27;;;;;;;;;;5036579;28;20028;-75
2022/11/24 13:14:04;;;;;;;23.52;15.95;;;;;;;;;;5052050;28;20526;-76
2022/11/24 13:16:30;;;;;;;28.10;17.55;;;;;;;;;;5037360;28;20181;-79
2022/11/24 13:19:01;;;;;;;19.15;11.80;;;;;;;;;;5037969;28;20051;-76
2022/11/24 13:21:44;;;;;;;16.80;12.27;;;;;;;;;;5070848;28;20030;-75
2022/11/24 13:24:17;;;;;;;17.45;9.82;;;;;;;;;;5012931;28;20045;-76
2022/11/24 13:26:48;;;;;;;21.02;15.63;;;;;;;;;;5017682;28;20158;-75
2022/11/24 13:29:34;;;;;;;20.92;13.75;;;;;;;;;;5017777;28;20032;-75
2022/11/24 13:32:03;;;;;;;31.40;20.67;;;;;;;;;;5027911;28;20075;-76
2022/11/24 13:37:16;;;;;;;23.15;14.20;;;;;;;;;;5054352;28;20081;-77
2022/11/24 13:40:02;;;;;;;18.00;13.13;;;;;;;;;;5054108;28;20098;-76
2022/11/24 13:42:35;;;;;;;24.35;15.98;;;;;;;;;;5071535;28;20048;-76
2022/11/24 13:45:04;;;;;;;26.30;16.38;;;;;;;;;;5051191;28;20108;-75
2022/11/24 13:47:44;;;;;;;19.40;14.35;;;;;;;;;;5037729;28;20044;-76
2022/11/24 13:50:19;;;;;;;30.35;19.23;;;;;;;;;;5037545;28;20119;-76
2022/11/24 13:53:05;;;;;;;25.55;16.38;;;;;;;;;;5020983;28;20039;-76
2022/11/24 13:55:37;;;;;;;22.73;15.77;;;;;;;;;;5050801;28;20040;-76
2022/11/24 13:58:10;;;;;;;25.20;16.23;;;;;;;;;;5017839;28;20040;-77
2022/11/24 14:00:55;;;;;;;23.90;14.52;;;;;;;;;;5017041;28;20043;-76
2022/11/24 14:03:24;;;;;;;24.67;16.17;;;;;;;;;;5003940;28;20566;-76
2022/11/24 14:05:54;;;;;;;24.40;16.58;;;;;;;;;;5050928;28;20051;-76
2022/11/24 14:08:35;;;;;;;24.83;16.40;;;;;;;;;;5037089;28;20036;-76
2022/11/24 14:11:03;;;;;;;27.92;16.55;;;;;;;;;;5036180;28;20416;-76
2022/11/24 14:13:30;;;;;;;28.23;20.02;;;;;;;;;;5036816;28;20040;-75
2022/11/24 14:16:09;;;;;;;19.05;13.38;;;;;;;;;;5019361;28;20040;-77
2022/11/24 14:18:36;;;;;;;33.97;19.73;;;;;;;;;;5037975;28;20048;-75
2022/11/24 14:21:21;;;;;;;23.55;13.77;;;;;;;;;;5063567;28;20042;-75
2022/11/24 14:23:53;;;;;;;28.40;16.08;;;;;;;;;;5053007;28;20126;-76
2022/11/24 14:26:33;;;;;;;30.92;16.70;;;;;;;;;;5035652;28;20055;-76
2022/11/24 14:29:05;;;;;;;30.53;18.10;;;;;;;;;;5033959;28;20040;-76
2022/11/24 14:31:32;;;;;;;34.63;22.92;;;;;;;;;;5051183;28;20371;-75
2022/11/24 14:34:10;;;;;;;27.05;16.63;;;;;;;;;;5037103;28;20036;-77
2022/11/24 14:36:45;;;;;;;20.95;16.13;;;;;;;;;;5054881;28;20039;-76
2022/11/24 14:39:12;;;;;;;22.65;14.32;;;;;;;;;;5036889;28;20079;-76
2022/11/24 14:42:02;;;;;;;20.67;15.20;;;;;;;;;;5056873;28;20035;-77
2022/11/24 14:44:46;;;;;;;17.10;11.95;;;;;;;;;;5039318;28;20484;-76
2022/11/24 14:47:16;;;;;;;28.83;16.17;;;;;;;;;;5018939;28;20105;-76
2022/11/24 14:49:42;;;;;;;16.48;10.95;;;;;;;;;;5017206;28;20415;-75
2022/11/24 14:52:13;;;;;;;16.20;11.23;;;;;;;;;;5035346;28;20104;-74
2022/11/24 14:54:48;;;;;;;14.75;9.82;;;;;;;;;;5036919;28;20160;-75
2022/11/24 14:57:34;;;;;;;19.83;9.57;;;;;;;;;;5053770;28;20100;-74
2022/11/24 15:00:04;;;;;;;23.30;15.82;;;;;;;;;;5036753;28;20424;-74